sensor_id;sensor_type;location;lat;lon;timestamp;noise_LAeq;noise_LA_min;noise_LA_max;noise_LA01;noise_LA95
64393;Laerm;50712;49.506;10.400;2024-02-23T00:00:25;46.75;45.71;47.57;;
64393;Laerm;50712;49.506;10.400;2024-02-23T00:00:56;46.74;45.45;47.82;;
64393;Laerm;50712;49.506;10.400;2024-02-23T00:01:26;46.74;45.70;47.79;;
64393;Laerm;50712;49.506;10.400;2024-02-23T00:01:57;46.75;45.81;47.65;;
64393;Laerm;50712;49.506;10.400;2024-02-23T00:02:27;46.74;45.93;48.10;;
64393;Laerm;50712;49.506;10.400;2024-02-23T00:02:57;46.75;45.76;47.82;;
64393;Laerm;50712;49.506;10.400;2024-02-23T00:03:28;46.74;45.78;47.63;;
64393;Laerm;50712;49.506;10.400;2024-02-23T00:03:58;46.76;45.79;47.59;;
64393;Laerm;50712;49.506;10.400;2024-02-23T00:04:29;46.74;45.82;47.72;;
64393;Laerm;50712;49.506;10.400;2024-02-23T00:04:59;46.74;45.62;48.02;;
64393;Laerm;50712;49.506;10.400;2024-02-23T00:05:30;46.75;45.81;48.51;;
64393;Laerm;50712;49.506;10.400;2024-02-23T00:06:00;46.75;45.75;47.75;;
64393;Laerm;50712;49.506;10.400;2024-02-23T00:06:31;46.75;45.85;47.60;;
64393;Laerm;50712;49.506;10.400;2024-02-23T00:07:01;46.74;45.69;47.78;;
64393;Laerm;50712;49.506;10.400;2024-02-23T00:07:33;46.75;45.84;47.66;;
64393;Laerm;50712;49.506;10.400;2024-02-23T00:08:03;46.74;45.82;47.71;;
64393;Laerm;50712;49.506;10.400;2024-02-23T00:08:34;46.77;45.94;47.66;;
64393;Laerm;50712;49.506;10.400;2024-02-23T00:09:04;46.76;45.85;47.68;;
64393;Laerm;50712;49.506;10.400;2024-02-23T00:09:35;46.75;45.70;47.63;;
64393;Laerm;50712;49.506;10.400;2024-02-23T00:10:06;46.75;45.76;47.83;;
64393;Laerm;50712;49.506;10.400;2024-02-23T00:10:36;46.77;45.75;47.95;;
64393;Laerm;50712;49.506;10.400;2024-02-23T00:11:07;46.75;45.83;47.70;;
64393;Laerm;50712;49.506;10.400;2024-02-23T00:11:41;46.74;45.62;47.77;;
64393;Laerm;50712;49.506;10.400;2024-02-23T00:12:14;46.75;45.82;47.68;;
64393;Laerm;50712;49.506;10.400;2024-02-23T00:12:44;46.74;45.68;47.68;;
64393;Laerm;50712;49.506;10.400;2024-02-23T00:13:15;46.75;45.65;47.83;;
64393;Laerm;50712;49.506;10.400;2024-02-23T00:13:45;46.74;45.69;47.81;;
64393;Laerm;50712;49.506;10.400;2024-02-23T00:14:16;46.74;45.81;47.72;;
64393;Laerm;50712;49.506;10.400;2024-02-23T00:14:50;46.77;45.87;47.79;;
64393;Laerm;50712;49.506;10.400;2024-02-23T00:15:21;46.76;45.79;47.82;;
64393;Laerm;50712;49.506;10.400;2024-02-23T00:15:51;46.75;45.67;47.87;;
64393;Laerm;50712;49.506;10.400;2024-02-23T00:16:22;46.75;45.61;47.96;;
64393;Laerm;50712;49.506;10.400;2024-02-23T00:16:52;46.77;45.61;47.78;;
64393;Laerm;50712;49.506;10.400;2024-02-23T00:17:23;46.75;45.83;47.96;;
64393;Laerm;50712;49.506;10.400;2024-02-23T00:17:53;46.78;45.74;47.63;;
64393;Laerm;50712;49.506;10.400;2024-02-23T00:18:24;46.75;45.82;47.66;;
64393;Laerm;50712;49.506;10.400;2024-02-23T00:18:54;46.78;45.76;47.64;;
64393;Laerm;50712;49.506;10.400;2024-02-23T00:19:24;46.75;45.84;47.79;;
64393;Laerm;50712;49.506;10.400;2024-02-23T00:19:55;46.78;45.75;48.22;;
64393;Laerm;50712;49.506;10.400;2024-02-23T00:20:25;46.77;45.67;47.64;;
64393;Laerm;50712;49.506;10.400;2024-02-23T00:20:56;46.76;45.83;47.64;;
64393;Laerm;50712;49.506;10.400;2024-02-23T00:21:26;46.76;45.81;47.66;;
64393;Laerm;50712;49.506;10.400;2024-02-23T00:21:57;46.77;45.65;47.86;;
64393;Laerm;50712;49.506;10.400;2024-02-23T00:23:02;46.78;45.68;47.79;;
64393;Laerm;50712;49.506;10.400;2024-02-23T00:23:33;46.76;45.66;47.76;;
64393;Laerm;50712;49.506;10.400;2024-02-23T00:24:04;46.76;45.77;47.72;;
64393;Laerm;50712;49.506;10.400;2024-02-23T00:24:35;46.76;45.73;47.75;;
64393;Laerm;50712;49.506;10.400;2024-02-23T00:25:07;46.75;45.90;47.68;;
64393;Laerm;50712;49.506;10.400;2024-02-23T00:25:38;46.78;45.88;48.08;;
64393;Laerm;50712;49.506;10.400;2024-02-23T00:26:08;46.78;45.90;48.41;;
64393;Laerm;50712;49.506;10.400;2024-02-23T00:26:39;46.77;45.61;47.97;;
64393;Laerm;50712;49.506;10.400;2024-02-23T00:27:09;46.77;45.78;47.69;;
64393;Laerm;50712;49.506;10.400;2024-02-23T00:27:40;46.76;45.81;47.63;;
64393;Laerm;50712;49.506;10.400;2024-02-23T00:28:12;46.76;45.80;47.59;;
64393;Laerm;50712;49.506;10.400;2024-02-23T00:28:42;46.78;45.70;48.57;;
64393;Laerm;50712;49.506;10.400;2024-02-23T00:29:12;46.78;45.70;48.57;;
64393;Laerm;50712;49.506;10.400;2024-02-23T00:29:45;46.77;45.62;48.10;;
64393;Laerm;50712;49.506;10.400;2024-02-23T00:30:16;46.76;45.71;47.63;;
64393;Laerm;50712;49.506;10.400;2024-02-23T00:30:46;46.77;45.71;47.89;;
64393;Laerm;50712;49.506;10.400;2024-02-23T00:31:17;46.77;45.75;47.68;;
64393;Laerm;50712;49.506;10.400;2024-02-23T00:31:47;46.75;45.63;47.71;;
64393;Laerm;50712;49.506;10.400;2024-02-23T00:32:18;46.76;45.95;47.62;;
64393;Laerm;50712;49.506;10.400;2024-02-23T00:32:48;46.75;45.50;47.81;;
64393;Laerm;50712;49.506;10.400;2024-02-23T00:33:18;46.77;45.56;47.63;;
64393;Laerm;50712;49.506;10.400;2024-02-23T00:33:49;46.79;45.62;47.87;;
64393;Laerm;50712;49.506;10.400;2024-02-23T00:34:19;46.78;45.74;48.17;;
64393;Laerm;50712;49.506;10.400;2024-02-23T00:34:50;46.77;45.91;47.62;;
64393;Laerm;50712;49.506;10.400;2024-02-23T00:35:20;46.77;45.69;47.75;;
64393;Laerm;50712;49.506;10.400;2024-02-23T00:35:51;46.77;45.75;47.62;;
64393;Laerm;50712;49.506;10.400;2024-02-23T00:36:21;46.76;45.86;47.62;;
64393;Laerm;50712;49.506;10.400;2024-02-23T00:36:51;46.76;45.79;47.74;;
64393;Laerm;50712;49.506;10.400;2024-02-23T00:37:22;46.79;45.81;47.60;;
64393;Laerm;50712;49.506;10.400;2024-02-23T00:37:53;46.76;45.71;47.72;;
64393;Laerm;50712;49.506;10.400;2024-02-23T00:38:57;46.79;45.86;47.74;;
64393;Laerm;50712;49.506;10.400;2024-02-23T00:39:27;46.77;45.93;47.62;;
64393;Laerm;50712;49.506;10.400;2024-02-23T00:39:58;46.79;45.85;47.81;;
64393;Laerm;50712;49.506;10.400;2024-02-23T00:40:28;46.77;45.80;48.04;;
64393;Laerm;50712;49.506;10.400;2024-02-23T00:40:59;46.77;45.44;47.72;;
64393;Laerm;50712;49.506;10.400;2024-02-23T00:41:29;46.80;45.82;47.71;;
64393;Laerm;50712;49.506;10.400;2024-02-23T00:42:00;46.79;45.97;47.68;;
64393;Laerm;50712;49.506;10.400;2024-02-23T00:42:31;46.79;45.73;47.76;;
64393;Laerm;50712;49.506;10.400;2024-02-23T00:43:01;46.78;45.71;47.75;;
64393;Laerm;50712;49.506;10.400;2024-02-23T00:43:42;46.80;45.89;47.96;;
64393;Laerm;50712;49.506;10.400;2024-02-23T00:44:12;46.79;45.87;47.79;;
64393;Laerm;50712;49.506;10.400;2024-02-23T00:44:43;46.78;45.98;47.74;;
64393;Laerm;50712;49.506;10.400;2024-02-23T00:45:13;46.77;45.79;48.34;;
64393;Laerm;50712;49.506;10.400;2024-02-23T00:45:44;46.78;45.77;48.34;;
64393;Laerm;50712;49.506;10.400;2024-02-23T00:46:14;46.79;45.83;47.75;;
64393;Laerm;50712;49.506;10.400;2024-02-23T00:46:44;46.78;45.59;47.69;;
64393;Laerm;50712;49.506;10.400;2024-02-23T00:47:15;46.78;45.53;47.69;;
64393;Laerm;50712;49.506;10.400;2024-02-23T00:47:45;46.78;45.59;47.74;;
64393;Laerm;50712;49.506;10.400;2024-02-23T00:48:18;46.78;45.80;47.67;;
64393;Laerm;50712;49.506;10.400;2024-02-23T00:48:48;46.78;45.64;48.05;;
64393;Laerm;50712;49.506;10.400;2024-02-23T00:49:19;46.77;45.90;47.66;;
64393;Laerm;50712;49.506;10.400;2024-02-23T00:49:49;46.77;45.96;47.65;;
64393;Laerm;50712;49.506;10.400;2024-02-23T00:50:20;46.80;45.76;48.19;;
64393;Laerm;50712;49.506;10.400;2024-02-23T00:50:50;46.80;45.76;47.68;;
64393;Laerm;50712;49.506;10.400;2024-02-23T00:51:21;46.79;45.89;47.70;;
64393;Laerm;50712;49.506;10.400;2024-02-23T00:51:51;46.78;45.85;47.82;;
64393;Laerm;50712;49.506;10.400;2024-02-23T00:52:22;46.80;45.90;47.87;;
64393;Laerm;50712;49.506;10.400;2024-02-23T00:52:52;46.80;45.85;47.73;;
64393;Laerm;50712;49.506;10.400;2024-02-23T00:53:23;46.78;45.75;47.83;;
64393;Laerm;50712;49.506;10.400;2024-02-23T00:53:53;46.80;45.83;47.60;;
64393;Laerm;50712;49.506;10.400;2024-02-23T00:54:24;46.78;45.63;48.31;;
64393;Laerm;50712;49.506;10.400;2024-02-23T00:54:54;46.78;45.77;47.78;;
64393;Laerm;50712;49.506;10.400;2024-02-23T00:55:25;46.79;45.86;47.89;;
64393;Laerm;50712;49.506;10.400;2024-02-23T00:55:56;46.80;45.83;48.36;;
64393;Laerm;50712;49.506;10.400;2024-02-23T00:56:27;46.79;45.65;47.85;;
64393;Laerm;50712;49.506;10.400;2024-02-23T00:56:57;46.80;45.51;47.79;;
64393;Laerm;50712;49.506;10.400;2024-02-23T00:57:28;46.79;45.97;47.71;;
64393;Laerm;50712;49.506;10.400;2024-02-23T00:57:59;46.80;45.79;47.64;;
64393;Laerm;50712;49.506;10.400;2024-02-23T00:58:30;46.80;45.85;47.78;;
64393;Laerm;50712;49.506;10.400;2024-02-23T00:59:01;46.80;45.68;47.70;;
64393;Laerm;50712;49.506;10.400;2024-02-23T00:59:31;46.79;45.64;47.69;;
64393;Laerm;50712;49.506;10.400;2024-02-23T01:00:03;46.78;45.93;47.73;;
64393;Laerm;50712;49.506;10.400;2024-02-23T01:00:35;46.78;45.82;47.72;;
64393;Laerm;50712;49.506;10.400;2024-02-23T01:01:06;46.79;45.89;47.81;;
64393;Laerm;50712;49.506;10.400;2024-02-23T01:01:36;46.79;45.86;47.88;;
64393;Laerm;50712;49.506;10.400;2024-02-23T01:02:06;46.79;45.74;47.94;;
64393;Laerm;50712;49.506;10.400;2024-02-23T01:02:37;46.80;46.00;47.74;;
64393;Laerm;50712;49.506;10.400;2024-02-23T01:03:08;46.77;45.39;47.67;;
64393;Laerm;50712;49.506;10.400;2024-02-23T01:03:38;46.78;45.60;47.92;;
64393;Laerm;50712;49.506;10.400;2024-02-23T01:04:09;46.80;45.71;47.62;;
64393;Laerm;50712;49.506;10.400;2024-02-23T01:04:39;46.80;45.78;47.76;;
64393;Laerm;50712;49.506;10.400;2024-02-23T01:05:10;46.78;45.82;47.64;;
64393;Laerm;50712;49.506;10.400;2024-02-23T01:05:40;46.78;45.82;47.74;;
64393;Laerm;50712;49.506;10.400;2024-02-23T01:06:12;46.79;45.63;47.70;;
64393;Laerm;50712;49.506;10.400;2024-02-23T01:06:43;46.79;45.70;47.93;;
64393;Laerm;50712;49.506;10.400;2024-02-23T01:07:13;46.79;45.84;48.40;;
64393;Laerm;50712;49.506;10.400;2024-02-23T01:07:44;46.78;45.74;47.66;;
64393;Laerm;50712;49.506;10.400;2024-02-23T01:08:14;46.80;45.88;47.63;;
64393;Laerm;50712;49.506;10.400;2024-02-23T01:08:44;46.78;45.44;47.76;;
64393;Laerm;50712;49.506;10.400;2024-02-23T01:09:15;46.81;45.80;47.94;;
64393;Laerm;50712;49.506;10.400;2024-02-23T01:09:50;46.79;45.64;47.79;;
64393;Laerm;50712;49.506;10.400;2024-02-23T01:10:21;46.78;45.81;47.70;;
64393;Laerm;50712;49.506;10.400;2024-02-23T01:10:52;46.80;45.90;47.89;;
64393;Laerm;50712;49.506;10.400;2024-02-23T01:11:22;46.78;45.76;47.74;;
64393;Laerm;50712;49.506;10.400;2024-02-23T01:12:23;46.79;45.84;47.72;;
64393;Laerm;50712;49.506;10.400;2024-02-23T01:12:53;46.78;45.64;47.62;;
64393;Laerm;50712;49.506;10.400;2024-02-23T01:13:24;46.79;45.66;47.64;;
64393;Laerm;50712;49.506;10.400;2024-02-23T01:13:54;46.79;45.86;47.75;;
64393;Laerm;50712;49.506;10.400;2024-02-23T01:14:25;46.80;45.95;47.79;;
64393;Laerm;50712;49.506;10.400;2024-02-23T01:14:55;46.81;45.88;47.68;;
64393;Laerm;50712;49.506;10.400;2024-02-23T01:15:25;46.79;45.77;48.07;;
64393;Laerm;50712;49.506;10.400;2024-02-23T01:15:56;46.79;45.70;48.10;;
64393;Laerm;50712;49.506;10.400;2024-02-23T01:16:26;46.80;45.68;48.28;;
64393;Laerm;50712;49.506;10.400;2024-02-23T01:16:57;46.79;45.87;48.10;;
64393;Laerm;50712;49.506;10.400;2024-02-23T01:17:27;46.80;45.99;47.74;;
64393;Laerm;50712;49.506;10.400;2024-02-23T01:17:58;46.80;45.91;47.77;;
64393;Laerm;50712;49.506;10.400;2024-02-23T01:18:28;46.79;45.77;47.75;;
64393;Laerm;50712;49.506;10.400;2024-02-23T01:18:59;46.79;45.84;47.98;;
64393;Laerm;50712;49.506;10.400;2024-02-23T01:19:59;46.82;45.80;48.02;;
64393;Laerm;50712;49.506;10.400;2024-02-23T01:20:30;46.80;45.51;47.71;;
64393;Laerm;50712;49.506;10.400;2024-02-23T01:21:00;46.81;45.77;48.43;;
64393;Laerm;50712;49.506;10.400;2024-02-23T01:21:31;46.80;45.70;47.68;;
64393;Laerm;50712;49.506;10.400;2024-02-23T01:22:04;46.80;45.84;47.78;;
64393;Laerm;50712;49.506;10.400;2024-02-23T01:22:35;46.80;45.70;48.62;;
64393;Laerm;50712;49.506;10.400;2024-02-23T01:23:05;46.79;45.89;48.25;;
64393;Laerm;50712;49.506;10.400;2024-02-23T01:23:35;46.78;45.81;47.81;;
64393;Laerm;50712;49.506;10.400;2024-02-23T01:24:06;46.80;45.81;47.59;;
64393;Laerm;50712;49.506;10.400;2024-02-23T01:24:36;46.81;45.83;47.80;;
64393;Laerm;50712;49.506;10.400;2024-02-23T01:25:06;46.80;45.87;47.97;;
64393;Laerm;50712;49.506;10.400;2024-02-23T01:25:37;46.80;45.92;48.24;;
64393;Laerm;50712;49.506;10.400;2024-02-23T01:26:07;46.80;45.62;47.74;;
64393;Laerm;50712;49.506;10.400;2024-02-23T01:26:38;46.83;45.89;48.67;;
64393;Laerm;50712;49.506;10.400;2024-02-23T01:27:08;46.82;45.65;47.81;;
64393;Laerm;50712;49.506;10.400;2024-02-23T01:27:39;46.80;45.81;47.75;;
64393;Laerm;50712;49.506;10.400;2024-02-23T01:28:10;46.81;45.82;47.77;;
64393;Laerm;50712;49.506;10.400;2024-02-23T01:28:40;46.80;45.92;47.79;;
64393;Laerm;50712;49.506;10.400;2024-02-23T01:29:11;46.83;45.88;47.96;;
64393;Laerm;50712;49.506;10.400;2024-02-23T01:29:41;46.80;45.79;47.71;;
64393;Laerm;50712;49.506;10.400;2024-02-23T01:30:12;46.81;45.88;47.90;;
64393;Laerm;50712;49.506;10.400;2024-02-23T01:30:42;46.81;45.77;47.61;;
64393;Laerm;50712;49.506;10.400;2024-02-23T01:31:13;46.78;45.75;47.71;;
64393;Laerm;50712;49.506;10.400;2024-02-23T01:31:43;46.80;45.90;47.93;;
64393;Laerm;50712;49.506;10.400;2024-02-23T01:32:14;46.83;45.97;47.91;;
64393;Laerm;50712;49.506;10.400;2024-02-23T01:32:45;46.80;45.72;47.63;;
64393;Laerm;50712;49.506;10.400;2024-02-23T01:33:16;46.82;45.84;47.68;;
64393;Laerm;50712;49.506;10.400;2024-02-23T01:33:46;46.81;45.91;47.72;;
64393;Laerm;50712;49.506;10.400;2024-02-23T01:34:17;46.81;45.85;48.55;;
64393;Laerm;50712;49.506;10.400;2024-02-23T01:34:48;46.81;45.65;48.26;;
64393;Laerm;50712;49.506;10.400;2024-02-23T01:35:18;46.80;45.88;47.78;;
64393;Laerm;50712;49.506;10.400;2024-02-23T01:35:48;46.80;45.83;47.91;;
64393;Laerm;50712;49.506;10.400;2024-02-23T01:36:19;46.82;45.83;47.83;;
64393;Laerm;50712;49.506;10.400;2024-02-23T01:36:49;46.80;45.90;47.64;;
64393;Laerm;50712;49.506;10.400;2024-02-23T01:37:20;46.81;45.72;48.05;;
64393;Laerm;50712;49.506;10.400;2024-02-23T01:37:50;46.81;45.84;48.04;;
64393;Laerm;50712;49.506;10.400;2024-02-23T01:38:20;46.82;45.93;47.71;;
64393;Laerm;50712;49.506;10.400;2024-02-23T01:39:22;46.83;45.85;48.28;;
64393;Laerm;50712;49.506;10.400;2024-02-23T01:39:52;46.81;45.77;47.62;;
64393;Laerm;50712;49.506;10.400;2024-02-23T01:40:23;46.82;45.95;47.72;;
64393;Laerm;50712;49.506;10.400;2024-02-23T01:40:53;46.81;45.88;47.66;;
64393;Laerm;50712;49.506;10.400;2024-02-23T01:41:24;46.83;45.87;47.84;;
64393;Laerm;50712;49.506;10.400;2024-02-23T01:41:54;46.83;45.67;47.73;;
64393;Laerm;50712;49.506;10.400;2024-02-23T01:42:25;46.82;45.74;48.36;;
64393;Laerm;50712;49.506;10.400;2024-02-23T01:43:03;46.82;45.88;47.75;;
64393;Laerm;50712;49.506;10.400;2024-02-23T01:43:33;46.80;45.66;47.73;;
64393;Laerm;50712;49.506;10.400;2024-02-23T01:44:04;46.82;45.84;47.87;;
64393;Laerm;50712;49.506;10.400;2024-02-23T01:44:35;46.80;45.77;47.70;;
64393;Laerm;50712;49.506;10.400;2024-02-23T01:45:05;46.81;45.32;47.77;;
64393;Laerm;50712;49.506;10.400;2024-02-23T01:45:37;46.81;45.92;47.59;;
64393;Laerm;50712;49.506;10.400;2024-02-23T01:46:08;46.82;45.81;47.63;;
64393;Laerm;50712;49.506;10.400;2024-02-23T01:46:38;46.81;45.60;47.74;;
64393;Laerm;50712;49.506;10.400;2024-02-23T01:47:09;46.80;45.77;47.97;;
64393;Laerm;50712;49.506;10.400;2024-02-23T01:47:40;46.83;45.70;47.77;;
64393;Laerm;50712;49.506;10.400;2024-02-23T01:48:11;46.80;45.41;48.34;;
64393;Laerm;50712;49.506;10.400;2024-02-23T01:48:42;46.82;45.68;47.74;;
64393;Laerm;50712;49.506;10.400;2024-02-23T01:49:13;46.83;45.80;47.77;;
64393;Laerm;50712;49.506;10.400;2024-02-23T01:49:46;46.81;45.86;47.82;;
64393;Laerm;50712;49.506;10.400;2024-02-23T01:50:17;46.84;45.78;47.82;;
64393;Laerm;50712;49.506;10.400;2024-02-23T01:50:47;46.83;45.80;47.71;;
64393;Laerm;50712;49.506;10.400;2024-02-23T01:51:18;46.81;45.84;47.71;;
64393;Laerm;50712;49.506;10.400;2024-02-23T01:51:49;46.81;45.55;47.90;;
64393;Laerm;50712;49.506;10.400;2024-02-23T01:52:20;46.82;45.85;48.59;;
64393;Laerm;50712;49.506;10.400;2024-02-23T01:52:51;46.81;45.86;47.65;;
64393;Laerm;50712;49.506;10.400;2024-02-23T01:53:22;46.81;45.73;47.79;;
64393;Laerm;50712;49.506;10.400;2024-02-23T01:53:55;46.79;45.66;47.67;;
64393;Laerm;50712;49.506;10.400;2024-02-23T01:54:26;46.80;45.81;48.13;;
64393;Laerm;50712;49.506;10.400;2024-02-23T01:54:58;46.84;46.13;47.93;;
64393;Laerm;50712;49.506;10.400;2024-02-23T01:55:31;46.82;45.87;47.72;;
64393;Laerm;50712;49.506;10.400;2024-02-23T01:56:03;46.82;45.78;47.75;;
64393;Laerm;50712;49.506;10.400;2024-02-23T01:56:33;46.79;45.81;47.84;;
64393;Laerm;50712;49.506;10.400;2024-02-23T01:57:37;46.82;45.66;47.69;;
64393;Laerm;50712;49.506;10.400;2024-02-23T01:58:07;46.82;45.94;48.21;;
64393;Laerm;50712;49.506;10.400;2024-02-23T01:58:39;46.80;45.50;47.75;;
64393;Laerm;50712;49.506;10.400;2024-02-23T01:59:10;46.82;45.79;48.53;;
64393;Laerm;50712;49.506;10.400;2024-02-23T01:59:41;46.82;45.60;48.57;;
64393;Laerm;50712;49.506;10.400;2024-02-23T02:00:16;46.80;45.79;48.30;;
64393;Laerm;50712;49.506;10.400;2024-02-23T02:00:52;46.83;45.94;48.73;;
64393;Laerm;50712;49.506;10.400;2024-02-23T02:01:22;46.82;45.46;47.71;;
64393;Laerm;50712;49.506;10.400;2024-02-23T02:01:53;46.83;45.71;47.82;;
64393;Laerm;50712;49.506;10.400;2024-02-23T02:02:24;46.82;45.96;48.94;;
64393;Laerm;50712;49.506;10.400;2024-02-23T02:02:54;46.83;45.88;47.97;;
64393;Laerm;50712;49.506;10.400;2024-02-23T02:03:26;46.83;45.82;47.86;;
64393;Laerm;50712;49.506;10.400;2024-02-23T02:03:57;46.84;45.74;47.87;;
64393;Laerm;50712;49.506;10.400;2024-02-23T02:04:28;46.84;45.93;47.81;;
64393;Laerm;50712;49.506;10.400;2024-02-23T02:04:59;46.83;45.92;48.05;;
64393;Laerm;50712;49.506;10.400;2024-02-23T02:05:29;46.81;45.75;48.40;;
64393;Laerm;50712;49.506;10.400;2024-02-23T02:06:00;46.82;45.81;48.03;;
64393;Laerm;50712;49.506;10.400;2024-02-23T02:06:30;46.81;45.86;48.03;;
64393;Laerm;50712;49.506;10.400;2024-02-23T02:07:01;46.82;45.87;47.72;;
64393;Laerm;50712;49.506;10.400;2024-02-23T02:07:31;46.82;45.84;47.72;;
64393;Laerm;50712;49.506;10.400;2024-02-23T02:08:02;46.84;45.78;47.74;;
64393;Laerm;50712;49.506;10.400;2024-02-23T02:08:36;46.81;45.82;47.81;;
64393;Laerm;50712;49.506;10.400;2024-02-23T02:09:07;46.84;45.55;47.72;;
64393;Laerm;50712;49.506;10.400;2024-02-23T02:09:37;46.83;45.75;47.81;;
64393;Laerm;50712;49.506;10.400;2024-02-23T02:10:09;46.84;45.88;47.82;;
64393;Laerm;50712;49.506;10.400;2024-02-23T02:10:39;46.81;45.91;47.69;;
64393;Laerm;50712;49.506;10.400;2024-02-23T02:11:10;46.83;45.79;47.60;;
64393;Laerm;50712;49.506;10.400;2024-02-23T02:11:47;46.83;45.83;48.46;;
64393;Laerm;50712;49.506;10.400;2024-02-23T02:12:27;46.82;45.77;47.75;;
64393;Laerm;50712;49.506;10.400;2024-02-23T02:13:02;46.84;45.86;47.66;;
64393;Laerm;50712;49.506;10.400;2024-02-23T02:14:03;46.85;45.89;47.83;;
64393;Laerm;50712;49.506;10.400;2024-02-23T02:14:34;46.83;45.91;47.68;;
64393;Laerm;50712;49.506;10.400;2024-02-23T02:15:05;46.82;45.89;48.70;;
64393;Laerm;50712;49.506;10.400;2024-02-23T02:15:36;46.82;45.58;47.77;;
64393;Laerm;50712;49.506;10.400;2024-02-23T02:16:06;46.82;45.98;47.80;;
64393;Laerm;50712;49.506;10.400;2024-02-23T02:16:37;46.82;45.90;47.80;;
64393;Laerm;50712;49.506;10.400;2024-02-23T02:17:07;46.83;45.94;47.79;;
64393;Laerm;50712;49.506;10.400;2024-02-23T02:17:38;46.84;45.69;47.71;;
64393;Laerm;50712;49.506;10.400;2024-02-23T02:18:08;46.85;45.49;47.67;;
64393;Laerm;50712;49.506;10.400;2024-02-23T02:18:39;46.83;45.81;48.46;;
64393;Laerm;50712;49.506;10.400;2024-02-23T02:19:09;46.84;45.75;47.74;;
64393;Laerm;50712;49.506;10.400;2024-02-23T02:19:46;46.84;45.89;47.75;;
64393;Laerm;50712;49.506;10.400;2024-02-23T02:20:17;46.83;45.57;48.14;;
64393;Laerm;50712;49.506;10.400;2024-02-23T02:20:54;46.85;45.97;48.04;;
64393;Laerm;50712;49.506;10.400;2024-02-23T02:21:24;46.83;45.84;47.76;;
64393;Laerm;50712;49.506;10.400;2024-02-23T02:21:56;46.82;45.72;47.69;;
64393;Laerm;50712;49.506;10.400;2024-02-23T02:22:27;46.84;45.94;47.81;;
64393;Laerm;50712;49.506;10.400;2024-02-23T02:22:57;46.84;46.01;48.12;;
64393;Laerm;50712;49.506;10.400;2024-02-23T02:23:28;46.84;45.93;47.78;;
64393;Laerm;50712;49.506;10.400;2024-02-23T02:23:58;46.83;45.84;47.86;;
64393;Laerm;50712;49.506;10.400;2024-02-23T02:24:28;46.84;45.83;47.91;;
64393;Laerm;50712;49.506;10.400;2024-02-23T02:24:59;46.83;45.97;47.75;;
64393;Laerm;50712;49.506;10.400;2024-02-23T02:25:30;46.84;45.88;47.65;;
64393;Laerm;50712;49.506;10.400;2024-02-23T02:26:01;46.83;45.94;47.74;;
64393;Laerm;50712;49.506;10.400;2024-02-23T02:26:31;46.85;46.04;48.00;;
64393;Laerm;50712;49.506;10.400;2024-02-23T02:27:01;46.83;45.79;47.73;;
64393;Laerm;50712;49.506;10.400;2024-02-23T02:27:32;46.83;45.83;47.80;;
64393;Laerm;50712;49.506;10.400;2024-02-23T02:28:06;46.83;45.91;48.11;;
64393;Laerm;50712;49.506;10.400;2024-02-23T02:28:36;46.85;45.76;47.86;;
64393;Laerm;50712;49.506;10.400;2024-02-23T02:29:37;46.84;45.67;47.68;;
64393;Laerm;50712;49.506;10.400;2024-02-23T02:30:07;46.85;45.77;49.11;;
64393;Laerm;50712;49.506;10.400;2024-02-23T02:30:38;46.84;45.79;47.83;;
64393;Laerm;50712;49.506;10.400;2024-02-23T02:31:08;46.85;45.99;47.75;;
64393;Laerm;50712;49.506;10.400;2024-02-23T02:31:41;46.84;45.75;47.97;;
64393;Laerm;50712;49.506;10.400;2024-02-23T02:32:12;46.87;45.90;48.34;;
64393;Laerm;50712;49.506;10.400;2024-02-23T02:32:42;46.85;45.82;48.17;;
64393;Laerm;50712;49.506;10.400;2024-02-23T02:33:13;46.83;45.94;48.14;;
64393;Laerm;50712;49.506;10.400;2024-02-23T02:33:43;46.85;45.81;47.89;;
64393;Laerm;50712;49.506;10.400;2024-02-23T02:34:14;46.86;46.02;47.84;;
64393;Laerm;50712;49.506;10.400;2024-02-23T02:34:44;46.84;45.85;48.53;;
64393;Laerm;50712;49.506;10.400;2024-02-23T02:35:15;46.87;45.96;48.39;;
64393;Laerm;50712;49.506;10.400;2024-02-23T02:35:46;46.83;45.94;47.70;;
64393;Laerm;50712;49.506;10.400;2024-02-23T02:36:16;46.84;45.74;47.57;;
64393;Laerm;50712;49.506;10.400;2024-02-23T02:36:46;46.84;45.75;48.57;;
64393;Laerm;50712;49.506;10.400;2024-02-23T02:37:17;46.84;45.57;47.78;;
64393;Laerm;50712;49.506;10.400;2024-02-23T02:37:47;46.85;45.84;47.83;;
64393;Laerm;50712;49.506;10.400;2024-02-23T02:38:18;46.84;45.91;47.73;;
64393;Laerm;50712;49.506;10.400;2024-02-23T02:38:48;46.84;45.76;47.75;;
64393;Laerm;50712;49.506;10.400;2024-02-23T02:39:19;46.86;45.68;47.80;;
64393;Laerm;50712;49.506;10.400;2024-02-23T02:39:49;46.84;45.91;47.81;;
64393;Laerm;50712;49.506;10.400;2024-02-23T02:40:19;46.85;45.88;48.16;;
64393;Laerm;50712;49.506;10.400;2024-02-23T02:40:50;46.86;45.74;48.04;;
64393;Laerm;50712;49.506;10.400;2024-02-23T02:41:22;46.85;45.82;47.71;;
64393;Laerm;50712;49.506;10.400;2024-02-23T02:41:54;46.85;45.93;47.75;;
64393;Laerm;50712;49.506;10.400;2024-02-23T02:42:26;46.84;45.93;47.67;;
64393;Laerm;50712;49.506;10.400;2024-02-23T02:42:58;46.86;45.96;47.72;;
64393;Laerm;50712;49.506;10.400;2024-02-23T02:43:29;46.84;45.93;47.72;;
64393;Laerm;50712;49.506;10.400;2024-02-23T02:43:59;46.83;45.87;47.69;;
64393;Laerm;50712;49.506;10.400;2024-02-23T02:44:30;46.85;45.82;47.86;;
64393;Laerm;50712;49.506;10.400;2024-02-23T02:45:01;46.86;45.45;48.04;;
64393;Laerm;50712;49.506;10.400;2024-02-23T02:45:32;46.87;45.90;47.65;;
64393;Laerm;50712;49.506;10.400;2024-02-23T02:46:03;46.85;45.94;48.32;;
64393;Laerm;50712;49.506;10.400;2024-02-23T02:46:33;46.85;45.85;47.70;;
64393;Laerm;50712;49.506;10.400;2024-02-23T02:47:34;46.84;45.96;47.93;;
64393;Laerm;50712;49.506;10.400;2024-02-23T02:48:06;46.87;45.91;48.51;;
64393;Laerm;50712;49.506;10.400;2024-02-23T02:48:37;46.86;45.97;47.86;;
64393;Laerm;50712;49.506;10.400;2024-02-23T02:49:07;46.85;45.92;47.79;;
64393;Laerm;50712;49.506;10.400;2024-02-23T02:49:40;46.84;45.85;47.70;;
64393;Laerm;50712;49.506;10.400;2024-02-23T02:50:10;46.84;45.92;48.58;;
64393;Laerm;50712;49.506;10.400;2024-02-23T02:50:41;46.86;45.95;47.87;;
64393;Laerm;50712;49.506;10.400;2024-02-23T02:51:11;46.84;45.89;47.75;;
64393;Laerm;50712;49.506;10.400;2024-02-23T02:51:42;46.86;46.04;47.88;;
64393;Laerm;50712;49.506;10.400;2024-02-23T02:52:12;46.84;45.88;47.86;;
64393;Laerm;50712;49.506;10.400;2024-02-23T02:52:43;46.86;45.98;47.76;;
64393;Laerm;50712;49.506;10.400;2024-02-23T02:53:13;46.84;45.83;47.92;;
64393;Laerm;50712;49.506;10.400;2024-02-23T02:53:43;46.87;46.00;47.78;;
64393;Laerm;50712;49.506;10.400;2024-02-23T02:54:14;46.86;45.90;48.78;;
64393;Laerm;50712;49.506;10.400;2024-02-23T02:54:44;46.84;45.84;47.75;;
64393;Laerm;50712;49.506;10.400;2024-02-23T02:55:15;46.86;45.87;47.77;;